sensor_id;sensor_type;location;lat;lon;timestamp;temperature;humidity
322;DHT22;148;51.480;7.208;2022-07-05T15:10:30;25.10;43.50
322;DHT22;148;51.480;7.208;2022-07-05T15:12:56;25.10;43.90
322;DHT22;148;51.480;7.208;2022-07-05T15:15:22;25.30;43.70
322;DHT22;148;51.480;7.208;2022-07-05T15:17:47;25.40;43.30
322;DHT22;148;51.480;7.208;2022-07-05T15:20:13;25.50;43.20
322;DHT22;148;51.480;7.208;2022-07-05T15:22:40;25.70;42.90
322;DHT22;148;51.480;7.208;2022-07-05T15:25:06;25.70;43.00
322;DHT22;148;51.480;7.208;2022-07-05T15:27:32;25.80;43.10
322;DHT22;148;51.480;7.208;2022-07-05T15:29:58;25.90;43.30
322;DHT22;148;51.480;7.208;2022-07-05T15:32:23;25.90;43.00
322;DHT22;148;51.480;7.208;2022-07-05T15:34:49;26.00;42.90
322;DHT22;148;51.480;7.208;2022-07-05T15:37:15;26.00;42.40
322;DHT22;148;51.480;7.208;2022-07-05T15:39:40;25.80;43.30
322;DHT22;148;51.480;7.208;2022-07-05T15:42:06;25.60;43.60
322;DHT22;148;51.480;7.208;2022-07-05T15:44:31;25.70;43.90
322;DHT22;148;51.480;7.208;2022-07-05T15:46:57;25.70;43.90
322;DHT22;148;51.480;7.208;2022-07-05T15:49:29;25.50;44.50
322;DHT22;148;51.480;7.208;2022-07-05T15:51:56;25.30;45.00
322;DHT22;148;51.480;7.208;2022-07-05T15:54:22;25.30;45.30
322;DHT22;148;51.480;7.208;2022-07-05T15:56:47;25.00;45.50
322;DHT22;148;51.480;7.208;2022-07-05T15:59:13;25.00;45.70
322;DHT22;148;51.480;7.208;2022-07-05T16:01:38;24.80;45.70
322;DHT22;148;51.480;7.208;2022-07-05T16:04:05;24.80;46.00
322;DHT22;148;51.480;7.208;2022-07-05T16:06:31;24.70;45.90
322;DHT22;148;51.480;7.208;2022-07-05T16:08:56;24.70;45.70
322;DHT22;148;51.480;7.208;2022-07-05T16:11:22;24.70;45.80
322;DHT22;148;51.480;7.208;2022-07-05T16:13:48;24.70;45.90
322;DHT22;148;51.480;7.208;2022-07-05T16:16:13;24.70;45.70
322;DHT22;148;51.480;7.208;2022-07-05T16:18:46;24.50;45.80
322;DHT22;148;51.480;7.208;2022-07-05T16:21:17;24.30;46.10
322;DHT22;148;51.480;7.208;2022-07-05T16:23:45;24.40;46.10
322;DHT22;148;51.480;7.208;2022-07-05T16:26:13;24.40;46.10
322;DHT22;148;51.480;7.208;2022-07-05T16:28:39;24.20;46.50
322;DHT22;148;51.480;7.208;2022-07-05T16:31:09;24.00;47.40
322;DHT22;148;51.480;7.208;2022-07-05T16:33:38;24.10;47.60
322;DHT22;148;51.480;7.208;2022-07-05T16:36:05;24.00;47.80
322;DHT22;148;51.480;7.208;2022-07-05T16:38:31;24.10;47.30
322;DHT22;148;51.480;7.208;2022-07-05T16:40:58;24.20;46.70
322;DHT22;148;51.480;7.208;2022-07-05T16:43:24;24.30;46.60
322;DHT22;148;51.480;7.208;2022-07-05T16:45:49;24.30;46.50
322;DHT22;148;51.480;7.208;2022-07-05T16:48:15;24.30;46.60
322;DHT22;148;51.480;7.208;2022-07-05T16:50:40;24.30;46.50
322;DHT22;148;51.480;7.208;2022-07-05T16:53:06;24.30;46.80
322;DHT22;148;51.480;7.208;2022-07-05T17:39:18;22.70;53.40
322;DHT22;148;51.480;7.208;2022-07-05T17:41:44;22.50;53.70
322;DHT22;148;51.480;7.208;2022-07-05T17:44:09;22.60;53.70
322;DHT22;148;51.480;7.208;2022-07-05T17:46:35;22.60;53.20
322;DHT22;148;51.480;7.208;2022-07-05T17:49:01;22.70;53.00
322;DHT22;148;51.480;7.208;2022-07-05T17:51:26;22.60;52.90
322;DHT22;148;51.480;7.208;2022-07-05T17:53:52;22.60;52.50
322;DHT22;148;51.480;7.208;2022-07-05T17:56:18;22.60;52.60
322;DHT22;148;51.480;7.208;2022-07-05T17:58:43;22.60;52.60
322;DHT22;148;51.480;7.208;2022-07-05T18:01:10;22.60;52.60
322;DHT22;148;51.480;7.208;2022-07-05T18:03:36;22.60;52.70
322;DHT22;148;51.480;7.208;2022-07-05T18:06:03;22.60;52.70
322;DHT22;148;51.480;7.208;2022-07-05T18:08:29;22.60;52.90
322;DHT22;148;51.480;7.208;2022-07-05T18:10:55;22.60;52.40
322;DHT22;148;51.480;7.208;2022-07-05T18:13:21;22.60;52.20
322;DHT22;148;51.480;7.208;2022-07-05T18:15:46;22.60;52.30
322;DHT22;148;51.480;7.208;2022-07-05T18:18:13;22.50;52.60
322;DHT22;148;51.480;7.208;2022-07-05T18:20:43;22.40;52.00
322;DHT22;148;51.480;7.208;2022-07-05T18:23:10;22.40;52.40
322;DHT22;148;51.480;7.208;2022-07-05T18:25:37;22.50;52.10
322;DHT22;148;51.480;7.208;2022-07-05T18:28:06;22.40;52.30
322;DHT22;148;51.480;7.208;2022-07-05T18:30:32;22.50;52.10
322;DHT22;148;51.480;7.208;2022-07-05T18:32:57;22.60;51.80
322;DHT22;148;51.480;7.208;2022-07-05T18:35:23;22.50;52.00
322;DHT22;148;51.480;7.208;2022-07-05T18:37:49;22.50;51.90
322;DHT22;148;51.480;7.208;2022-07-05T18:40:15;22.40;51.90
322;DHT22;148;51.480;7.208;2022-07-05T18:42:40;22.30;51.80
322;DHT22;148;51.480;7.208;2022-07-05T18:45:06;22.40;51.60
322;DHT22;148;51.480;7.208;2022-07-05T18:47:32;22.50;51.40
322;DHT22;148;51.480;7.208;2022-07-05T18:49:58;22.50;51.60
322;DHT22;148;51.480;7.208;2022-07-05T18:52:24;22.20;52.00
322;DHT22;148;51.480;7.208;2022-07-05T18:54:49;22.20;52.00
322;DHT22;148;51.480;7.208;2022-07-05T18:57:15;22.20;52.20
322;DHT22;148;51.480;7.208;2022-07-05T18:59:41;22.10;52.20
322;DHT22;148;51.480;7.208;2022-07-05T19:02:09;22.20;52.10
322;DHT22;148;51.480;7.208;2022-07-05T19:04:35;22.30;52.10
322;DHT22;148;51.480;7.208;2022-07-05T19:07:01;22.30;52.20
322;DHT22;148;51.480;7.208;2022-07-05T19:09:56;22.30;52.20
322;DHT22;148;51.480;7.208;2022-07-05T19:12:40;22.50;51.40
322;DHT22;148;51.480;7.208;2022-07-05T19:15:25;22.40;51.70
322;DHT22;148;51.480;7.208;2022-07-05T19:17:50;22.10;52.00
322;DHT22;148;51.480;7.208;2022-07-05T19:20:16;22.10;51.90
322;DHT22;148;51.480;7.208;2022-07-05T19:22:43;21.90;52.40
322;DHT22;148;51.480;7.208;2022-07-05T19:25:09;21.90;52.50
322;DHT22;148;51.480;7.208;2022-07-05T19:27:35;22.00;52.00
322;DHT22;148;51.480;7.208;2022-07-05T19:30:01;21.80;52.00
322;DHT22;148;51.480;7.208;2022-07-05T19:32:27;21.60;52.50
322;DHT22;148;51.480;7.208;2022-07-05T19:34:53;21.60;52.40
322;DHT22;148;51.480;7.208;2022-07-05T19:37:19;21.60;52.30
322;DHT22;148;51.480;7.208;2022-07-05T19:39:45;21.70;52.00
322;DHT22;148;51.480;7.208;2022-07-05T19:42:11;21.50;52.40
322;DHT22;148;51.480;7.208;2022-07-05T19:44:36;21.40;52.80
322;DHT22;148;51.480;7.208;2022-07-05T19:47:03;21.60;52.60
322;DHT22;148;51.480;7.208;2022-07-05T19:49:28;21.30;52.90
322;DHT22;148;51.480;7.208;2022-07-05T19:51:54;21.40;52.80
322;DHT22;148;51.480;7.208;2022-07-05T19:54:20;21.50;52.70
322;DHT22;148;51.480;7.208;2022-07-05T19:56:46;21.50;52.50
322;DHT22;148;51.480;7.208;2022-07-05T19:59:13;21.60;52.10
322;DHT22;148;51.480;7.208;2022-07-05T20:01:39;21.60;52.40
322;DHT22;148;51.480;7.208;2022-07-05T20:04:05;21.60;52.10
322;DHT22;148;51.480;7.208;2022-07-05T20:06:33;21.60;52.40
322;DHT22;148;51.480;7.208;2022-07-05T20:08:58;21.60;52.20
322;DHT22;148;51.480;7.208;2022-07-05T20:11:24;21.40;52.70
322;DHT22;148;51.480;7.208;2022-07-05T20:13:50;21.40;52.80
322;DHT22;148;51.480;7.208;2022-07-05T20:16:15;21.50;52.60
322;DHT22;148;51.480;7.208;2022-07-05T20:18:41;21.50;52.60
322;DHT22;148;51.480;7.208;2022-07-05T20:21:07;21.40;52.80
322;DHT22;148;51.480;7.208;2022-07-05T20:23:33;21.40;52.90
322;DHT22;148;51.480;7.208;2022-07-05T20:25:58;21.40;52.80
322;DHT22;148;51.480;7.208;2022-07-05T20:28:24;21.30;52.80
322;DHT22;148;51.480;7.208;2022-07-05T20:30:49;21.30;52.80
322;DHT22;148;51.480;7.208;2022-07-05T20:33:15;21.20;53.10
322;DHT22;148;51.480;7.208;2022-07-05T20:35:42;21.20;53.10
322;DHT22;148;51.480;7.208;2022-07-05T20:38:09;21.20;53.30
322;DHT22;148;51.480;7.208;2022-07-05T20:40:35;21.10;53.70
322;DHT22;148;51.480;7.208;2022-07-05T20:43:01;20.90;54.60
